Flight Track Log - Related Links

Times and Time Zones

All times are in EDT time to prevent confusion due to time zone crossing. See the AAL21 flight status page for this flight to view local times or setup timezone preferences in your user account.

Time Position Orientation Groundspeed Altitude Reporting Facility
EDT Latitude Longitude Course Direction KTS MPH feet Rate Location/Type
Tue 10:15:04 PM 40.6500 -73.8333 270° West 165 190 1,400  Level New York TRACON
Tue 10:16:10 PM 40.6000 -73.9000 225° Southwest 216 249 3,000 1,952 Climbing New York TRACON
Tue 10:17:00 PM 40.4170 -74.1326 237° Southwest  Level FlightAware Approximate
Tue 10:17:10 PM 40.5500 -73.9500 217° Southwest 256 295 5,500  Level New York TRACON
Tue 10:18:00 PM 40.3376 -74.2485 232° Southwest  Level FlightAware Approximate
Tue 10:18:10 PM 40.4833 -74.0000 210° Southwest 267 307 8,400  Level New York TRACON
Tue 10:19:00 PM 40.2633 -74.3700 217° Southwest  Level FlightAware Approximate
Tue 10:19:16 PM 40.4167 -74.0667 217° Southwest 285 328 10,900  Level New York TRACON
Tue 10:20:00 PM 40.2000 -74.4933 270° West  Level FlightAware Approximate
Tue 10:20:17 PM 40.3711 -74.1653 239° Southwest 353 406 11,700  Level New York Center
Tue 10:21:17 PM 40.3181 -74.2661 235° Southwest 363 418 14,000 2,350 Climbing New York Center
Tue 10:22:17 PM 40.2828 -74.4058 252° West 373 429 16,400 2,186 Climbing New York Center
Tue 10:23:15 PM 40.2656 -74.5492 261° West 397 457 18,300 1,780 Climbing New York Center
Tue 10:24:15 PM 40.2511 -74.6789 262° West 403 464 19,900 1,636 Climbing New York Center
Tue 10:25:16 PM 40.2333 -74.8275 261° West 415 478 21,600 1,672 Climbing New York Center
Tue 10:26:17 PM 40.2156 -74.9814 261° West 421 484 23,300 2,118 Climbing New York Center
Tue 10:27:15 PM 40.1994 -75.1353 262° West 428 493 25,800 2,746 Climbing New York Center
Tue 10:28:15 PM 40.1817 -75.2781 261° West 420 483 28,700 2,083 Climbing New York Center
Tue 10:29:16 PM 40.1681 -75.4158 263° West 405 466 30,000 900 Climbing New York Center
Tue 10:30:15 PM 40.1494 -75.5639 261° West 405 466 30,500 545 Climbing New York Center
Tue 10:31:17 PM 40.1306 -75.7175 261° West 417 480 31,100 950 Climbing New York Center
Tue 10:32:15 PM 40.1081 -75.9031 261° West 460 529 32,400 1,271 Climbing New York Center
Tue 10:33:15 PM 40.0825 -76.0614 258° West 466 536 33,600 1,033 Climbing New York Center
Tue 10:34:17 PM 40.0253 -76.2169 244° Southwest 474 545 34,500 850 Climbing New York Center
Tue 10:35:15 PM 39.9658 -76.3722 243° Southwest 479 551 35,300 763 Climbing New York Center
Tue 10:36:15 PM 39.9064 -76.5269 243° Southwest 484 557 36,000 356 Climbing New York Center
Tue 10:36:56 PM 39.8633 -76.6294 241° Southwest 483 556 35,900 -59 Descending Washington Center
Tue 10:37:56 PM 39.7994 -76.7878 242° Southwest 505 581 35,900 50 Level Washington Center
Tue 10:38:57 PM 39.7394 -76.9433 243° Southwest 505 581 36,000  Climbing Washington Center
Tue 10:39:55 PM 39.6772 -77.0986 243° Southwest 494 568 35,900 -51 Descending Washington Center
Tue 10:40:54 PM 39.6231 -77.2431 244° Southwest 494 568 35,900  Level Washington Center
Tue 10:41:55 PM 39.5628 -77.3950 243° Southwest 488 562 35,900  Level Washington Center
Tue 10:42:55 PM 39.5019 -77.5522 243° Southwest 488 562 35,900  Level Washington Center
Tue 10:43:56 PM 39.4408 -77.7092 243° Southwest 488 562 35,900  Level Washington Center
Tue 10:44:54 PM 39.3797 -77.8603 242° Southwest 488 562 35,900  Level Washington Center
Tue 10:45:55 PM 39.3206 -78.0142 244° Southwest 488 562 35,900  Level Washington Center
Tue 10:46:56 PM 39.2589 -78.1675 243° Southwest 488 562 35,900  Level Washington Center
Tue 10:47:54 PM 39.1994 -78.3156 243° Southwest 482 555 35,900  Level Washington Center
Tue 10:48:56 PM 39.1397 -78.4631 242° Southwest 482 555 35,900  Level Washington Center
Tue 10:49:57 PM 39.0819 -78.6133 244° Southwest 477 549 35,900  Level Washington Center
Tue 10:50:56 PM 39.0217 -78.7606 242° Southwest 472 543 35,900  Level Washington Center
Tue 10:51:54 PM 38.9617 -78.9072 242° Southwest 467 537 35,900  Level Washington Center
Tue 10:52:55 PM 38.9011 -79.0539 242° Southwest 467 537 35,900  Level Washington Center
Tue 10:53:55 PM 38.8425 -79.2031 243° Southwest 467 537 35,900  Level Washington Center
Tue 10:54:54 PM 38.7853 -79.3708 246° West 467 537 35,900 50 Level Washington Center
Tue 10:55:54 PM 38.7306 -79.5197 245° Southwest 462 532 36,000  Climbing Washington Center
Tue 10:56:55 PM 38.6800 -79.6553 244° Southwest 462 532 35,900 -50 Descending Washington Center
Tue 10:57:55 PM 38.6189 -79.7981 241° Southwest 462 532 35,900 50 Level Washington Center
Tue 10:58:56 PM 38.5572 -79.9433 242° Southwest 462 532 36,000  Climbing Washington Center
Tue 10:59:54 PM 38.4867 -80.1089 241° Southwest 468 539 35,900  Descending Washington Center
Tue 11:02:02 PM 38.3411 -80.4133 239° Southwest 477 549 36,000 286 Climbing Indianapolis Center
Tue 11:03:03 PM 38.2922 -80.5597 247° West 480 552 36,800 634 Climbing Indianapolis Center
Tue 11:04:05 PM 38.2594 -80.7203 255° West 470 541 37,300 537 Climbing Indianapolis Center
Tue 11:05:06 PM 38.2253 -80.8828 255° West 472 543 37,900 293 Climbing Indianapolis Center
Tue 11:06:08 PM 38.1922 -81.0483 256° West 479 551 37,900  Level Indianapolis Center
Tue 11:07:09 PM 38.1569 -81.2150 255° West 485 558 37,900  Level Indianapolis Center
Tue 11:08:11 PM 38.1228 -81.3797 255° West 481 554 37,900  Level Indianapolis Center
Tue 11:09:12 PM 38.0917 -81.5444 257° West 477 549 37,900  Level Indianapolis Center
Tue 11:10:13 PM 38.0575 -81.7083 255° West 478 550 37,900  Level Indianapolis Center
Tue 11:11:15 PM 38.0222 -81.8722 255° West 480 552 37,900  Level Indianapolis Center
Tue 11:12:16 PM 37.9797 -82.0700 255° West 482 555 37,900  Level Indianapolis Center
Tue 11:13:17 PM 37.9444 -82.2344 255° West 479 551 37,900  Level Indianapolis Center
Tue 11:14:19 PM 37.9081 -82.3961 254° West 480 552 37,900  Level Indianapolis Center
Tue 11:15:20 PM 37.8719 -82.5578 254° West 479 551 37,900  Level Indianapolis Center
Tue 11:16:22 PM 37.8358 -82.7203 254° West 480 552 37,900  Level Indianapolis Center
Tue 11:17:23 PM 37.7997 -82.8811 254° West 478 550 37,900  Level Indianapolis Center
Tue 11:18:25 PM 37.7622 -83.0444 254° West 483 556 37,900  Level Indianapolis Center
Tue 11:19:26 PM 37.7264 -83.2069 254° West 482 555 37,900  Level Indianapolis Center
Tue 11:20:28 PM 37.6828 -83.3936 254° West 476 548 37,900  Level Indianapolis Center
Tue 11:21:29 PM 37.6456 -83.5522 254° West 473 544 37,900  Level Indianapolis Center
Tue 11:22:31 PM 37.6083 -83.7117 254° West 476 548 37,900  Level Indianapolis Center
Tue 11:23:32 PM 37.5714 -83.8711 254° West 475 547 37,900  Level Indianapolis Center
Tue 11:24:33 PM 37.5344 -84.0300 254° West 474 545 37,900  Level Indianapolis Center
Tue 11:25:35 PM 37.4964 -84.1892 253° West 474 545 37,900 49 Level Indianapolis Center
Tue 11:26:36 PM 37.4586 -84.3483 253° West 475 547 38,000  Climbing Indianapolis Center
Tue 11:27:37 PM 37.4128 -84.5333 253° West 475 547 37,900 -49 Descending Indianapolis Center
Tue 11:28:39 PM 37.3744 -84.6931 253° West 478 550 37,900  Level Indianapolis Center
Tue 11:29:40 PM 37.3339 -84.8522 252° West 480 552 37,900  Level Indianapolis Center
Tue 11:30:42 PM 37.2950 -85.0122 253° West 479 551 37,900  Level Indianapolis Center
Tue 11:31:43 PM 37.2553 -85.1728 253° West 481 554 37,900  Level Indianapolis Center
Tue 11:32:44 PM 37.2153 -85.3336 253° West 482 555 37,900  Level Indianapolis Center
Tue 11:33:46 PM 37.1742 -85.4942 252° West 482 555 37,900  Level Indianapolis Center
Tue 11:34:47 PM 37.1333 -85.6594 253° West 485 558 37,900  Level Indianapolis Center
Tue 11:35:48 PM 37.0922 -85.8192 252° West 481 554 37,900  Level Indianapolis Center
Tue 11:36:49 PM 37.0517 -85.9789 252° West 479 551 37,900  Level Indianapolis Center
Tue 11:37:51 PM 37.0108 -86.1383 252° West 478 550 37,900  Level Indianapolis Center
Tue 11:38:52 PM 36.9644 -86.3231 253° West 476 548 37,900  Level Indianapolis Center
Tue 11:40:02 PM 36.9117 -86.5064 250° West 482 555 37,900  Level Memphis Center
Tue 11:41:02 PM 36.8578 -86.6567 246° West 482 555 37,900  Level Memphis Center
Tue 11:42:02 PM 36.8039 -86.8094 246° West 482 555 37,900  Level Memphis Center
Tue 11:43:02 PM 36.7478 -86.9622 245° Southwest 487 560 37,900  Level Memphis Center
Tue 11:44:02 PM 36.6936 -87.1147 246° West 487 560 37,900  Level Memphis Center
Tue 11:45:02 PM 36.6428 -87.2486 245° Southwest 482 555 37,900  Level Memphis Center
Tue 11:46:02 PM 36.5803 -87.4164 245° Southwest 487 560 37,900  Level Memphis Center
Tue 11:47:02 PM 36.5311 -87.5472 245° Southwest 487 560 37,900  Level Memphis Center
Tue 11:48:02 PM 36.4739 -87.6964 245° Southwest 487 560 37,900  Level Memphis Center
Tue 11:49:02 PM 36.4167 -87.8425 244° Southwest 482 555 37,900  Level Memphis Center
Tue 11:50:02 PM 36.3592 -87.9939 245° Southwest 475 547 37,900 50 Level Memphis Center
Tue 11:51:02 PM 36.3094 -88.1267 245° Southwest 480 552 38,000  Climbing Memphis Center
Tue 11:52:02 PM 36.2517 -88.2828 245° Southwest 467 537 37,900 -50 Descending Memphis Center
Tue 11:53:02 PM 36.1956 -88.4306 245° Southwest 467 537 37,900  Level Memphis Center
Tue 11:54:02 PM 36.1375 -88.5786 244° Southwest 473 544 37,900 50 Level Memphis Center
Tue 11:55:02 PM 36.0811 -88.7236 244° Southwest 468 539 38,000  Climbing Memphis Center
Tue 11:56:02 PM 36.0225 -88.8736 244° Southwest 468 539 37,900 -50 Descending Memphis Center
Tue 11:57:02 PM 35.9658 -89.0208 245° Southwest 474 545 37,900  Level Memphis Center
Tue 11:58:02 PM 35.9069 -89.1706 244° Southwest 474 545 37,900  Level Memphis Center
Tue 11:59:02 PM 35.8497 -89.3172 244° Southwest 474 545 37,900  Level Memphis Center
Wed 12:00:02 AM 35.7906 -89.4639 244° Southwest 474 545 37,900  Level Memphis Center
Wed 12:01:02 AM 35.7350 -89.6103 245° Southwest 474 545 37,900  Level Memphis Center
Wed 12:02:02 AM 35.6775 -89.7692 246° West 464 534 37,900  Level Memphis Center
Wed 12:03:02 AM 35.6197 -89.9153 244° Southwest 464 534 37,900  Level Memphis Center
Wed 12:04:02 AM 35.5619 -90.0608 244° Southwest 469 540 37,900  Level Memphis Center
Wed 12:05:02 AM 35.5183 -90.2117 250° West 469 540 37,900  Level Memphis Center
Wed 12:06:02 AM 35.5206 -90.3750 271° West 473 544 37,900  Level Memphis Center
Wed 12:07:02 AM 35.5286 -90.5356 274° West 473 544 37,900  Level Memphis Center
Wed 12:08:02 AM 35.5367 -90.6939 274° West 481 554 37,900  Level Memphis Center
Wed 12:09:02 AM 35.5406 -90.8417 272° West 476 548 37,900  Level Memphis Center
Wed 12:10:02 AM 35.5461 -91.0000 273° West 476 548 37,900  Level Memphis Center
Wed 12:11:02 AM 35.5533 -91.1583 273° West 476 548 37,900  Level Memphis Center
Wed 12:12:02 AM 35.5586 -91.3192 272° West 476 548 37,900  Level Memphis Center
Wed 12:13:02 AM 35.5656 -91.4928 273° West 476 548 37,900 50 Level Memphis Center
Wed 12:14:02 AM 35.5722 -91.6536 273° West 476 548 38,000  Climbing Memphis Center
Wed 12:15:02 AM 35.5789 -91.8172 273° West 476 548 37,900 -50 Descending Memphis Center
Wed 12:16:02 AM 35.5850 -91.9781 273° West 476 548 37,900  Level Memphis Center
Wed 12:17:02 AM 35.5892 -92.1389 272° West 481 554 37,900  Level Memphis Center
Wed 12:18:02 AM 35.5950 -92.3000 273° West 475 547 37,900  Level Memphis Center
Wed 12:19:02 AM 35.6008 -92.4611 273° West 475 547 37,900  Level Memphis Center
Wed 12:20:02 AM 35.6064 -92.6194 273° West 475 547 37,900  Level Memphis Center
Wed 12:21:02 AM 35.6117 -92.7881 272° West 482 555 37,900 50 Level Memphis Center
Wed 12:22:02 AM 35.6189 -92.9467 273° West 481 554 38,000  Climbing Memphis Center
Wed 12:23:02 AM 35.6217 -93.1050 271° West 475 547 37,900 -50 Descending Memphis Center
Wed 12:24:02 AM 35.6286 -93.2611 273° West 475 547 37,900  Level Memphis Center
Wed 12:25:02 AM 35.6292 -93.4144 270° West 462 532 37,900  Level Memphis Center
Wed 12:26:02 AM 35.6336 -93.5703 272° West 462 532 37,900 50 Level Memphis Center
Wed 12:27:02 AM 35.6381 -93.7136 272° West 468 539 38,000  Climbing Memphis Center
Wed 12:28:02 AM 35.6442 -93.8722 273° West 468 539 37,900 -50 Descending Memphis Center
Wed 12:29:02 AM 35.6461 -94.0256 271° West 463 533 37,900  Level Memphis Center
Wed 12:30:02 AM 35.6492 -94.1994 271° West 458 527 37,900  Level Memphis Center
Wed 12:31:02 AM 35.6525 -94.3553 272° West 463 533 37,900  Level Memphis Center
Wed 12:32:02 AM 35.6578 -94.5089 272° West 463 533 37,900  Level Memphis Center
Wed 12:33:02 AM 35.6589 -94.6622 271° West 463 533 37,900  Level Memphis Center
Wed 12:34:41 AM 35.6625 -94.9050 271° West 450 518 37,900 38 Level Kansas City Center
Wed 12:35:42 AM 35.6639 -95.0606 271° West 453 521 38,000  Climbing Kansas City Center
Wed 12:36:43 AM 35.6678 -95.2122 272° West 445 512 37,900  Descending Kansas City Center
Wed 12:37:44 AM 35.6689 -95.3664 271° West 448 516 38,000  Climbing Kansas City Center
Wed 12:38:45 AM 35.6700 -95.5242 271° West 455 524 37,900  Descending Kansas City Center
Wed 12:39:46 AM 35.6714 -95.6814 271° West 456 525 38,000  Climbing Kansas City Center
Wed 12:40:47 AM 35.6722 -95.8383 270° West 457 526 37,900 -49 Descending Kansas City Center
Wed 12:41:48 AM 35.6719 -95.9914 270° West 451 519 37,900  Level Kansas City Center
Wed 12:42:48 AM 35.6728 -96.1442 270° West 453 521 37,900  Level Kansas City Center
Wed 12:43:49 AM 35.6722 -96.2997 270° West 455 524 37,900  Level Kansas City Center
Wed 12:44:50 AM 35.6731 -96.4856 270° West 455 524 37,900  Level Kansas City Center
Wed 12:45:51 AM 35.6733 -96.6417 270° West 457 526 37,900  Level Kansas City Center
Wed 12:46:52 AM 35.6739 -96.7964 270° West 456 525 37,900  Level Kansas City Center
Wed 12:47:53 AM 35.6742 -96.9519 270° West 458 527 37,900  Level Kansas City Center
Wed 12:48:53 AM 35.6750 -97.1067 270° West 457 526 37,900 50 Level Kansas City Center
Wed 12:49:54 AM 35.6753 -97.2619 270° West 458 527 38,000 49 Climbing Kansas City Center
Wed 12:50:55 AM 35.6742 -97.4192 270° West 464 534 38,000 -49 Level Kansas City Center
Wed 12:51:56 AM 35.6725 -97.5767 269° West 467 537 37,900 -49 Descending Kansas City Center
Wed 12:52:57 AM 35.6697 -97.7344 269° West 468 539 37,900  Level Kansas City Center
Wed 12:53:58 AM 35.6669 -97.9236 269° West 466 536 37,900  Level Kansas City Center
Wed 12:54:58 AM 35.6642 -98.0817 269° West 465 535 37,900  Level Kansas City Center
Wed 12:55:59 AM 35.6614 -98.2383 269° West 463 533 37,900  Level Kansas City Center
Wed 12:57:00 AM 35.6589 -98.3769 269° West 461 531 37,900  Level Kansas City Center
Wed 12:58:01 AM 35.6542 -98.5347 268° West 459 528 37,900 50 Level Kansas City Center
Wed 12:59:01 AM 35.6517 -98.6931 269° West 461 531 38,000  Climbing Kansas City Center
Wed 01:00:04 AM 35.6481 -98.8839 269° West 461 531 37,900  Descending Kansas City Center
Wed 01:01:04 AM 35.6444 -99.0442 268° West 462 532 38,000  Climbing Kansas City Center
Wed 01:02:05 AM 35.6406 -99.2050 268° West 464 534 37,900 -35 Descending Kansas City Center
Wed 01:03:57 AM 35.6339 -99.4944 268° West 467 537 37,900  Level Albuquerque Center
Wed 01:04:58 AM 35.6308 -99.6547 269° West 466 536 37,900  Level Albuquerque Center
Wed 01:05:59 AM 35.6275 -99.8119 269° West 462 532 37,900  Level Albuquerque Center
Wed 01:06:59 AM 35.6231 -99.9672 268° West 455 524 37,900  Level Albuquerque Center
Wed 01:08:00 AM 35.6183 -100.1219 268° West 452 520 37,900  Level Albuquerque Center
Wed 01:09:01 AM 35.6125 -100.2767 267° West 452 520 37,900 49 Level Albuquerque Center
Wed 01:10:02 AM 35.6072 -100.4300 268° West 450 518 38,000  Climbing Albuquerque Center
Wed 01:11:02 AM 35.6025 -100.5842 268° West 450 518 37,900  Descending Albuquerque Center
Wed 01:12:03 AM 35.5969 -100.7525 268° West 456 525 38,000 49 Climbing Albuquerque Center
Wed 01:13:04 AM 35.5897 -100.9086 267° West 458 527 38,000  Level Albuquerque Center
Wed 01:14:05 AM 35.5842 -101.0650 268° West 460 529 38,000  Level Albuquerque Center
Wed 01:15:05 AM 35.5783 -101.2203 267° West 459 528 38,000  Level Albuquerque Center
Wed 01:16:06 AM 35.5714 -101.3756 267° West 460 529 38,000 -49 Level Albuquerque Center
Wed 01:17:07 AM 35.5647 -101.5322 267° West 463 533 37,900 -49 Descending Albuquerque Center
Wed 01:18:08 AM 35.5581 -101.6858 267° West 459 528 37,900 50 Level Albuquerque Center
Wed 01:19:08 AM 35.5508 -101.8394 267° West 457 526 38,000 50 Climbing Albuquerque Center
Wed 01:20:09 AM 35.5414 -101.9933 266° West 458 527 38,000  Level Albuquerque Center
Wed 01:21:10 AM 35.5333 -102.1783 267° West 457 526 38,000  Level Albuquerque Center
Wed 01:22:10 AM 35.5242 -102.3297 266° West 451 519 38,000  Level Albuquerque Center
Wed 01:23:11 AM 35.5158 -102.4839 266° West 454 522 38,000  Level Albuquerque Center
Wed 01:24:12 AM 35.5094 -102.6322 267° West 452 520 38,000  Level Albuquerque Center
Wed 01:25:12 AM 35.5003 -102.7858 266° West 449 517 38,000  Level Albuquerque Center
Wed 01:26:13 AM 35.4939 -102.9389 267° West 447 514 38,000  Level Albuquerque Center
Wed 01:27:13 AM 35.4842 -103.0925 266° West 448 516 38,000  Level Albuquerque Center
Wed 01:28:14 AM 35.4767 -103.2469 267° West 449 517 38,000  Level Albuquerque Center
Wed 01:29:15 AM 35.4675 -103.4011 266° West 450 518 38,000  Level Albuquerque Center
Wed 01:30:15 AM 35.4606 -103.5561 267° West 452 520 38,000  Level Albuquerque Center
Wed 01:31:16 AM 35.4525 -103.7114 266° West 454 522 38,000  Level Albuquerque Center
Wed 01:32:17 AM 35.4428 -103.8661 266° West 453 521 38,000  Level Albuquerque Center
Wed 01:33:17 AM 35.4339 -104.0208 266° West 455 524 38,000  Level Albuquerque Center
Wed 01:34:18 AM 35.4253 -104.1761 266° West 458 527 38,000  Level Albuquerque Center
Wed 01:35:18 AM 35.4133 -104.3314 265° West 461 531 38,000  Level Albuquerque Center
Wed 01:36:19 AM 35.4022 -104.4861 265° West 459 528 38,000  Level Albuquerque Center
Wed 01:37:19 AM 35.3908 -104.6422 265° West 459 528 38,000  Level Albuquerque Center
Wed 01:38:20 AM 35.3803 -104.7981 265° West 458 527 38,000  Level Albuquerque Center
Wed 01:39:20 AM 35.3697 -104.9556 265° West 461 531 38,000  Level Albuquerque Center
Wed 01:40:21 AM 35.3594 -105.1119 265° West 458 527 38,000  Level Albuquerque Center
Wed 01:41:21 AM 35.3467 -105.2686 264° West 458 527 38,000  Level Albuquerque Center
Wed 01:42:34 AM 35.3353 -105.4261 265° West 460 529 38,000  Level Albuquerque Center
Wed 01:43:35 AM 35.3192 -105.6364 265° West 462 532 38,000  Level Albuquerque Center
Wed 01:44:35 AM 35.3061 -105.7942 264° West 462 532 38,000  Level Albuquerque Center
Wed 01:45:36 AM 35.2964 -105.9258 265° West 464 534 38,000  Level Albuquerque Center
Wed 01:46:36 AM 35.2842 -106.0844 265° West 465 535 38,000 -50 Level Albuquerque Center
Wed 01:47:36 AM 35.2719 -106.2439 265° West 463 533 37,900 -50 Descending Albuquerque Center
Wed 01:48:37 AM 35.2600 -106.4008 265° West 465 535 37,900  Level Albuquerque Center
Wed 01:49:37 AM 35.2461 -106.5769 265° West 465 535 37,900 50 Level Albuquerque Center
Wed 01:50:38 AM 35.2336 -106.7269 264° West 464 534 38,000  Climbing Albuquerque Center
Wed 01:51:38 AM 35.2200 -106.8772 264° West 464 534 37,900  Descending Albuquerque Center
Wed 01:52:39 AM 35.2042 -107.0533 264° West 464 534 38,000  Climbing Albuquerque Center
Wed 01:53:39 AM 35.1906 -107.2075 264° West 467 537 37,900 -50 Descending Albuquerque Center
Wed 01:54:40 AM 35.1758 -107.3647 264° West 471 542 37,900  Level Albuquerque Center
Wed 01:55:40 AM 35.1611 -107.5322 264° West 465 535 37,900  Level Albuquerque Center
Wed 01:56:41 AM 35.1464 -107.6839 263° West 467 537 37,900 50 Level Albuquerque Center
Wed 01:57:41 AM 35.1333 -107.8333 264° West 465 535 38,000 50 Climbing Albuquerque Center
Wed 01:58:42 AM 35.1192 -107.9822 263° West 461 531 38,000  Level Albuquerque Center
Wed 01:59:43 AM 35.1028 -108.1589 264° West 464 534 38,000  Level Albuquerque Center
Wed 02:00:44 AM 35.0872 -108.3100 263° West 466 536 38,000  Level Albuquerque Center
Wed 02:01:44 AM 35.0739 -108.4592 264° West 463 533 38,000 -50 Level Albuquerque Center
Wed 02:02:45 AM 35.0561 -108.6339 263° West 462 532 37,900 -50 Descending Albuquerque Center
Wed 02:03:45 AM 35.0411 -108.7819 263° West 460 529 37,900 50 Level Albuquerque Center
Wed 02:04:46 AM 35.0256 -108.9289 263° West 456 525 38,000 50 Climbing Albuquerque Center
Wed 02:05:46 AM 35.0078 -109.0972 263° West 450 518 38,000  Level Albuquerque Center
Wed 02:06:46 AM 34.9922 -109.2433 263° West 450 518 38,000  Level Albuquerque Center
Wed 02:07:47 AM 34.9767 -109.3889 263° West 451 519 38,000  Level Albuquerque Center
Wed 02:08:47 AM 34.9611 -109.5369 263° West 457 526 38,000  Level Albuquerque Center
Wed 02:09:48 AM 34.9428 -109.7075 263° West 456 525 38,000  Level Albuquerque Center
Wed 02:10:48 AM 34.9264 -109.8581 262° West 463 533 38,000  Level Albuquerque Center
Wed 02:11:48 AM 34.9106 -110.0064 263° West 463 533 38,000  Level Albuquerque Center
Wed 02:12:49 AM 34.8906 -110.1792 262° West 461 531 38,000  Level Albuquerque Center
Wed 02:13:49 AM 34.8733 -110.3275 262° West 460 529 38,000  Level Albuquerque Center
Wed 02:14:50 AM 34.8556 -110.4744 262° West 459 528 38,000  Level Albuquerque Center
Wed 02:15:50 AM 34.8381 -110.6197 262° West 456 525 38,000 -50 Level Albuquerque Center
Wed 02:16:50 AM 34.8189 -110.7686 261° West 455 524 37,900 -50 Descending Albuquerque Center
Wed 02:17:51 AM 34.8011 -110.9211 262° West 456 525 37,900 50 Level Albuquerque Center
Wed 02:18:51 AM 34.7842 -111.0792 263° West 466 536 38,000  Climbing Albuquerque Center
Wed 02:19:52 AM 34.7656 -111.2314 262° West 463 533 37,900 -50 Descending Albuquerque Center
Wed 02:20:52 AM 34.7461 -111.3831 261° West 459 528 37,900  Level Albuquerque Center
Wed 02:21:52 AM 34.7233 -111.5667 261° West 459 528 37,900  Level Albuquerque Center
Wed 02:22:53 AM 34.7042 -111.7200 261° West 461 531 37,900  Level Albuquerque Center
Wed 02:23:53 AM 34.6842 -111.8722 261° West 461 531 37,900  Level Albuquerque Center
Wed 02:24:53 AM 34.6647 -112.0244 261° West 461 531 37,900  Level Albuquerque Center
Wed 02:25:54 AM 34.6453 -112.1753 261° West 459 528 37,900  Level Albuquerque Center
Wed 02:26:54 AM 34.6247 -112.3264 261° West 458 527 37,900  Level Albuquerque Center
Wed 02:27:54 AM 34.6053 -112.4786 261° West 456 525 37,900  Level Albuquerque Center
Wed 02:28:55 AM 34.5844 -112.6286 260° West 454 522 37,900  Level Albuquerque Center
Wed 02:29:55 AM 34.5631 -112.7797 260° West 454 522 37,900  Level Albuquerque Center
Wed 02:30:56 AM 34.5439 -112.9303 261° West 454 522 37,900  Level Albuquerque Center
Wed 02:31:56 AM 34.5236 -113.0794 261° West 451 519 37,900  Level Albuquerque Center
Wed 02:32:56 AM 34.5036 -113.2297 261° West 452 520 37,900  Level Albuquerque Center
Wed 02:33:57 AM 34.4819 -113.3811 260° West 454 522 37,900  Level Albuquerque Center
Wed 02:34:57 AM 34.4611 -113.5328 261° West 456 525 37,900 50 Level Albuquerque Center
Wed 02:35:57 AM 34.4375 -113.6839 259° West 456 525 38,000 50 Climbing Albuquerque Center
Wed 02:36:58 AM 34.4167 -113.8328 260° West 453 521 38,000 -50 Level Albuquerque Center
Wed 02:37:58 AM 34.3939 -113.9869 260° West 454 522 37,900  Descending Albuquerque Center
Wed 02:38:58 AM 34.3700 -114.1381 259° West 458 527 38,000 50 Climbing Albuquerque Center
Wed 02:39:59 AM 34.3483 -114.2886 260° West 455 524 38,000 -50 Level Albuquerque Center
Wed 02:40:59 AM 34.3264 -114.4367 260° West 453 521 37,900  Descending Albuquerque Center
Wed 02:41:59 AM 34.3036 -114.5850 260° West 450 518 38,000  Climbing Albuquerque Center
Wed 02:43:17 AM 34.2739 -114.7986 261° West 450 518 37,900 -43 Descending Los Angeles Center
Wed 02:44:18 AM 34.2564 -114.9492 262° West 453 521 37,900  Level Los Angeles Center
Wed 02:45:18 AM 34.2372 -115.0989 261° West 453 521 37,900  Level Los Angeles Center
Wed 02:46:19 AM 34.2183 -115.2481 261° West 452 520 37,900  Level Los Angeles Center
Wed 02:47:20 AM 34.1986 -115.3969 261° West 452 520 37,900  Level Los Angeles Center
Wed 02:48:20 AM 34.1775 -115.5464 260° West 452 520 37,900  Level Los Angeles Center
Wed 02:49:21 AM 34.1564 -115.6958 260° West 455 524 37,900 -298 Level Los Angeles Center
Wed 02:50:21 AM 34.1367 -115.8436 261° West 450 518 37,300 -992 Descending Los Angeles Center
Wed 02:51:22 AM 34.1172 -115.9908 261° West 447 514 35,900 -1,785 Descending Los Angeles Center
Wed 02:52:22 AM 34.0969 -116.1408 261° West 454 522 33,700 -2,430 Descending Los Angeles Center
Wed 02:53:23 AM 34.0750 -116.2925 260° West 462 532 31,000 -2,613 Descending Los Angeles Center
Wed 02:54:26 AM 34.0547 -116.4450 261° West 464 534 28,300 -2,707 Descending Los Angeles Center
Wed 02:55:36 AM 34.0275 -116.6278 260° West 465 535 25,000 -2,840 Descending Los Angeles Center
Wed 02:56:37 AM 34.0061 -116.7744 260° West 453 521 22,100 -3,176 Descending Los Angeles Center
Wed 02:57:35 AM 33.9833 -116.9333 260° West 430 495 18,700 -2,679 Descending Southern California TRACON
Wed 02:58:29 AM 33.9667 -117.0667 261° West 425 489 17,100 -1,238 Descending Southern California TRACON
Wed 02:59:41 AM 33.9500 -117.2333 263° West 426 490 16,100 -842 Descending Southern California TRACON
Wed 03:00:23 AM 33.9333 -117.3333 259° West 413 475 15,500 -941 Descending Southern California TRACON
Wed 03:01:23 AM 33.9333 -117.4667 270° West 414 476 14,500 -1,000 Descending Southern California TRACON
Wed 03:02:17 AM 33.9333 -117.5833 270° West 422 486 13,600 -1,000 Descending Southern California TRACON
Wed 03:03:17 AM 33.9500 -117.7167 279° West 407 468 12,600 -1,000 Descending Southern California TRACON
Wed 03:04:23 AM 33.9667 -117.8500 279° West 385 443 11,500 -952 Descending Southern California TRACON
Wed 03:05:23 AM 33.9833 -117.9833 279° West 377 434 10,600 -750 Descending Southern California TRACON
Wed 03:06:23 AM 33.9667 -118.1000 260° West 378 435 10,000 -462 Descending Southern California TRACON
Wed 03:06:54 AM 33.9708 -118.1583 275° West 373 429 9,900 -65 Descending Los Angeles Center
Wed 03:07:55 AM 33.9844 -118.2639 279° West 322 371 9,900 -446 Level Los Angeles Center
Wed 03:08:55 AM 33.9983 -118.3589 280° West 295 339 9,000 -793 Descending Los Angeles Center
Wed 03:09:56 AM 34.0117 -118.4442 281° West 266 306 8,300 -1,131 Descending Los Angeles Center
Wed 03:10:57 AM 34.0156 -118.5347 273° West 235 270 6,700 -1,289 Descending Los Angeles Center
Wed 03:11:57 AM 34.0192 -118.6031 274° West 201 231 5,700 -1,190 Descending Los Angeles Center
Wed 03:12:58 AM 33.9950 -118.6517 239° Southwest 205 236 4,300 -1,377 Descending Los Angeles Center

Login

Don't have an account? Register now (free) for customized features, flight alerts, and more!